Time;durP1;ratioP1;P1;durP2;ratioP2;P2;SDS_P1;SDS_P2;PMS_P1;PMS_P2;Temp;Humidity;BMP_temperature;BMP_pressure;BME280_temperature;BME280_humidity;BME280_pressure;Samples;Min_cycle;Max_cycle;Signal;HPM_P1;HPM_P2
2022/01/13 00:01:41;;;;;;;35.50;15.95;;;;;;;-4.44;77.41;101783.59;4477543;31;35386;-83
2022/01/13 00:04:28;;;;;;;33.67;13.90;;;;;;;-4.52;76.51;101772.84;4480692;31;33360;-84
2022/01/13 00:07:14;;;;;;;30.75;14.50;;;;;;;-4.31;76.34;101783.97;4481997;31;34582;-83
2022/01/13 00:10:01;;;;;;;33.50;13.52;;;;;;;-4.35;75.95;101781.78;4481422;31;35002;-83
2022/01/13 00:12:48;;;;;;;36.72;15.65;;;;;;;-4.41;75.69;101793.09;4470818;31;34474;-84
2022/01/13 00:15:51;;;;;;;37.15;13.98;;;;;;;-4.07;74.42;101793.94;4494759;31;34346;-83
2022/01/13 00:18:40;;;;;;;37.58;14.48;;;;;;;-3.94;73.68;101793.47;4456467;31;34654;-83
2022/01/13 00:21:39;;;;;;;33.33;13.10;;;;;;;-4.11;74.57;101791.72;4494692;31;34968;-83
2022/01/13 00:24:25;;;;;;;37.00;14.52;;;;;;;-4.48;75.97;101800.09;4483295;31;34501;-83
2022/01/13 00:27:13;;;;;;;34.85;15.25;;;;;;;-4.34;76.05;101778.94;4478783;31;34851;-83
2022/01/13 00:30:01;;;;;;;47.80;16.10;;;;;;;-3.95;74.44;101790.97;4478249;31;34732;-84
2022/01/13 00:32:48;;;;;;;34.90;14.30;;;;;;;-3.86;73.58;101779.25;4465899;31;34523;-84
2022/01/13 00:35:34;;;;;;;35.15;13.75;;;;;;;-3.91;73.75;101781.59;4470703;31;34495;-83
2022/01/13 00:38:21;;;;;;;37.13;14.00;;;;;;;-3.73;73.52;101778.78;4481752;31;33691;-84
2022/01/13 00:41:07;;;;;;;36.78;14.75;;;;;;;-3.89;74.24;101779.59;4470544;31;35316;-83
2022/01/13 00:44:00;;;;;;;36.75;14.68;;;;;;;-3.84;75.21;101782.63;4480512;31;34925;-84
2022/01/13 00:46:56;;;;;;;36.22;15.00;;;;;;;-4.20;75.98;101787.34;4484511;31;33411;-84
2022/01/13 00:49:43;;;;;;;46.00;14.90;;;;;;;-5.68;82.82;101790.84;4478181;31;34700;-84
2022/01/13 00:52:30;;;;;;;40.65;16.75;;;;;;;-4.53;78.38;101782.69;4479207;31;34065;-84
2022/01/13 00:55:21;;;;;;;39.05;16.08;;;;;;;-5.09;80.80;101800.06;4482908;31;35043;-84
2022/01/13 00:58:07;;;;;;;34.95;14.40;;;;;;;-4.44;77.87;101788.94;4480492;31;34522;-84
2022/01/13 01:00:54;;;;;;;35.40;14.02;;;;;;;-4.37;77.62;101802.50;4487973;31;35180;-84
2022/01/13 01:03:41;;;;;;;33.75;14.95;;;;;;;-3.75;75.96;101803.06;4486338;31;34678;-84
2022/01/13 01:06:28;;;;;;;38.13;16.12;;;;;;;-3.44;73.62;101810.50;4463110;31;34921;-84
2022/01/13 01:09:20;;;;;;;39.70;15.63;;;;;;;-3.34;73.01;101810.31;4495546;31;34542;-84
2022/01/13 01:12:11;;;;;;;36.55;15.27;;;;;;;-3.30;72.72;101801.78;4484629;31;35549;-84
2022/01/13 01:14:58;;;;;;;35.55;15.23;;;;;;;-4.16;75.15;101802.91;4473097;31;35791;-83
2022/01/13 01:17:50;;;;;;;33.20;14.00;;;;;;;-5.21;81.60;101804.81;4484675;31;35028;-84
2022/01/13 01:20:47;;;;;;;39.55;15.65;;;;;;;-5.31;82.79;101813.91;4472884;31;35350;-84
2022/01/13 01:26:54;;;;;;;35.15;14.25;;;;;;;-6.62;90.89;101825.78;4462137;31;34106;-83
2022/01/13 01:29:50;;;;;;;39.45;15.77;;;;;;;-5.58;88.44;101812.97;4495740;31;36008;-84
2022/01/13 01:32:38;;;;;;;37.85;14.75;;;;;;;-4.70;82.83;101802.31;4485374;31;34093;-83
2022/01/13 01:35:27;;;;;;;40.40;14.23;;;;;;;-4.30;78.91;101808.88;4484095;31;34230;-83
2022/01/13 01:38:13;;;;;;;34.60;13.45;;;;;;;-4.13;77.53;101810.63;4484969;31;33985;-84
2022/01/13 01:40:59;;;;;;;33.03;13.18;;;;;;;-3.95;76.48;101802.50;4476975;31;34700;-84
2022/01/13 01:43:47;;;;;;;34.88;14.23;;;;;;;-4.20;76.42;101796.22;4494062;31;35010;-84
2022/01/13 01:46:41;;;;;;;35.63;14.80;;;;;;;-5.85;81.84;101826.37;4480216;31;33848;-84
2022/01/13 01:49:28;;;;;;;36.58;14.68;;;;;;;-6.14;86.25;101817.56;4481840;31;35284;-84
2022/01/13 01:52:18;;;;;;;39.13;15.38;;;;;;;-6.57;88.00;101810.19;4478092;31;35931;-84
2022/01/13 01:55:06;;;;;;;37.88;14.18;;;;;;;-5.92;88.60;101815.44;4473817;31;34582;-84
2022/01/13 01:57:52;;;;;;;39.75;15.68;;;;;;;-5.35;84.79;101810.69;4465094;31;34202;-84
2022/01/13 02:00:39;;;;;;;39.17;14.68;;;;;;;-5.16;82.75;101812.34;4480333;31;34567;-84
2022/01/13 02:03:26;;;;;;;41.40;16.02;;;;;;;-5.63;84.54;101831.31;4482678;31;35012;-84
2022/01/13 02:06:12;;;;;;;41.60;15.43;;;;;;;-4.57;80.34;101818.78;4483002;31;35445;-83
2022/01/13 02:08:59;;;;;;;39.28;15.10;;;;;;;-4.50;78.86;101818.97;4490157;31;34204;-84
2022/01/13 02:11:51;;;;;;;40.38;14.85;;;;;;;-4.95;79.36;101812.03;4467765;31;34666;-84
2022/01/13 02:14:55;;;;;;;33.00;14.02;;;;;;;-6.41;84.29;101815.72;4481590;31;34944;-84
2022/01/13 02:17:42;;;;;;;32.17;14.75;;;;;;;-5.20;80.13;101811.00;4472242;31;34264;-84
2022/01/13 02:20:46;;;;;;;31.98;14.60;;;;;;;-4.62;76.51;101805.03;4473227;31;34184;-84
2022/01/13 02:23:35;;;;;;;33.33;13.90;;;;;;;-4.44;73.91;101806.81;4474382;31;35623;-84
2022/01/13 02:26:22;;;;;;;37.47;14.38;;;;;;;-4.31;73.38;101808.03;4481498;31;35086;-85
2022/01/13 02:29:08;;;;;;;35.85;14.20;;;;;;;-4.30;72.58;101804.38;4482754;31;34543;-84
2022/01/13 02:31:58;;;;;;;34.33;13.93;;;;;;;-4.56;72.99;101804.41;4478954;31;35069;-84
2022/01/13 02:34:45;;;;;;;34.53;14.07;;;;;;;-4.61;72.77;101816.56;4482408;31;34682;-84
2022/01/13 02:37:31;;;;;;;41.08;15.18;;;;;;;-4.34;72.60;101812.87;4467170;31;36459;-84
2022/01/13 02:40:18;;;;;;;39.33;15.15;;;;;;;-4.36;72.64;101820.22;4485810;31;34484;-84
2022/01/13 02:43:05;;;;;;;37.30;14.75;;;;;;;-4.67;73.52;101825.22;4484299;31;34171;-84
2022/01/13 02:46:05;;;;;;;36.08;15.13;;;;;;;-4.45;73.27;101815.84;4478431;31;34644;-84
2022/01/13 02:48:52;;;;;;;34.63;14.38;;;;;;;-6.26;81.36;101815.22;4483458;31;34972;-83
2022/01/13 02:51:42;;;;;;;38.17;14.90;;;;;;;-4.82;75.30;101799.06;4470791;31;34432;-84
2022/01/13 02:54:29;;;;;;;33.97;12.93;;;;;;;-5.49;76.93;101801.38;4491569;31;34927;-84
2022/01/13 02:57:16;;;;;;;37.58;14.15;;;;;;;-5.92;78.59;101805.63;4479518;31;34129;-85
2022/01/13 03:00:04;;;;;;;32.67;14.05;;;;;;;-5.48;77.79;101794.22;4479616;31;35884;-84
2022/01/13 03:02:51;;;;;;;36.63;14.75;;;;;;;-5.09;74.85;101781.34;4462173;31;36152;-84
2022/01/13 03:05:39;;;;;;;32.90;13.85;;;;;;;-6.45;82.07;101790.34;4476902;31;34985;-84
2022/01/13 03:08:25;;;;;;;34.83;14.55;;;;;;;-5.54;77.09;101803.66;4470183;31;34618;-84
2022/01/13 03:11:12;;;;;;;36.65;14.80;;;;;;;-5.15;76.09;101803.34;4466844;31;34653;-83
2022/01/13 03:13:58;;;;;;;41.28;15.73;;;;;;;-6.36;80.00;101808.12;4481117;31;35412;-84
2022/01/13 03:16:45;;;;;;;37.85;15.70;;;;;;;-5.82;79.39;101816.22;4479524;31;34082;-84
2022/01/13 03:19:32;;;;;;;35.15;15.00;;;;;;;-5.27;77.61;101809.91;4476106;31;35237;-84
2022/01/13 03:22:18;;;;;;;38.67;15.70;;;;;;;-6.01;80.74;101822.53;4480573;31;35126;-84
2022/01/13 03:25:05;;;;;;;41.63;16.00;;;;;;;-5.48;78.88;101832.44;4472447;31;34205;-84
2022/01/13 03:27:56;;;;;;;35.30;15.02;;;;;;;-5.80;78.60;101848.13;4480110;31;34854;-84
2022/01/13 03:30:44;;;;;;;34.63;14.32;;;;;;;-6.87;83.65;101845.88;4482523;31;35178;-84
2022/01/13 03:33:33;;;;;;;38.70;13.93;;;;;;;-6.23;81.84;101841.62;4483730;31;34479;-85
2022/01/13 03:36:23;;;;;;;33.50;14.27;;;;;;;-6.92;85.01;101840.97;4478988;31;34490;-84
2022/01/13 03:39:10;;;;;;;32.78;13.65;;;;;;;-5.65;80.54;101855.47;4459812;31;33894;-84
2022/01/13 03:41:56;;;;;;;33.90;12.73;;;;;;;-7.28;86.57;101843.41;4483874;31;34423;-84
2022/01/13 03:44:42;;;;;;;33.15;13.70;;;;;;;-6.35;84.17;101840.97;4481561;31;34990;-84
2022/01/13 03:47:29;;;;;;;37.60;14.50;;;;;;;-5.54;80.30;101834.88;4479541;31;35382;-84
2022/01/13 03:50:16;;;;;;;34.22;14.02;;;;;;;-5.13;77.78;101827.25;4491638;31;34653;-85
2022/01/13 03:53:02;;;;;;;34.38;13.77;;;;;;;-5.00;76.90;101823.19;4475047;31;34634;-84
2022/01/13 03:56:16;;;;;;;33.13;14.30;;;;;;;-4.94;76.56;101816.37;4476744;31;35656;-84
2022/01/13 03:59:40;;;;;;;34.38;13.48;;;;;;;-5.01;77.14;101816.16;4482852;31;34601;-84
2022/01/13 04:02:26;;;;;;;37.88;13.48;;;;;;;-4.93;77.42;101833.25;4467565;31;32849;-84
2022/01/13 04:05:13;;;;;;;36.97;15.00;;;;;;;-4.67;76.65;101827.91;4480236;31;34539;-84
2022/01/13 04:07:59;;;;;;;42.10;16.73;;;;;;;-4.41;75.76;101814.50;4469730;31;35007;-84
2022/01/13 04:10:46;;;;;;;37.10;14.23;;;;;;;-4.49;74.97;101811.81;4472016;31;34603;-85
2022/01/13 04:16:41;;;;;;;40.50;15.55;;;;;;;-4.57;75.92;101823.31;4480170;31;34215;-84
2022/01/13 04:19:27;;;;;;;42.58;15.50;;;;;;;-4.39;75.26;101810.69;4494600;31;35992;-84
2022/01/13 04:22:15;;;;;;;37.53;15.48;;;;;;;-4.40;74.75;101821.56;4490703;31;35480;-84
2022/01/13 04:25:04;;;;;;;39.25;17.02;;;;;;;-4.32;74.97;101800.19;4478966;31;33875;-84
2022/01/13 04:28:00;;;;;;;39.90;16.00;;;;;;;-4.62;75.12;101777.44;4481103;31;35331;-84
2022/01/13 04:30:48;;;;;;;39.83;15.32;;;;;;;-4.20;74.53;101777.47;4485970;31;35112;-84
2022/01/13 04:33:37;;;;;;;38.03;15.45;;;;;;;-4.69;75.59;101782.59;4463441;31;34582;-84
2022/01/13 04:36:23;;;;;;;43.20;17.00;;;;;;;-4.72;75.62;101771.38;4472511;31;34704;-84
2022/01/13 04:39:10;;;;;;;36.88;14.95;;;;;;;-4.79;76.14;101771.16;4474112;31;35513;-84
2022/01/13 04:41:57;;;;;;;33.92;14.57;;;;;;;-5.12;77.46;101765.63;4460860;31;34696;-84
2022/01/13 04:44:43;;;;;;;42.53;16.33;;;;;;;-5.41;78.97;101776.56;4492135;31;34561;-84
2022/01/13 04:47:30;;;;;;;36.97;14.50;;;;;;;-6.16;81.26;101778.69;4474819;31;35488;-84
2022/01/13 04:50:17;;;;;;;42.78;16.05;;;;;;;-5.10;78.18;101768.94;4478012;31;34297;-84
2022/01/13 04:53:07;;;;;;;38.10;15.68;;;;;;;-4.81;76.50;101776.69;4472076;31;34468;-84
2022/01/13 04:55:58;;;;;;;42.38;15.20;;;;;;;-5.63;77.38;101791.25;4465228;31;34388;-84
2022/01/13 04:58:43;;;;;;;35.72;14.98;;;;;;;-6.04;80.07;101801.50;4476625;31;35267;-81
2022/01/13 05:01:30;;;;;;;40.58;16.23;;;;;;;-5.78;79.68;101795.41;4477418;31;35175;-81
2022/01/13 05:04:21;;;;;;;32.60;13.20;;;;;;;-5.48;77.04;101796.88;4465380;31;35906;-81
2022/01/13 05:07:07;;;;;;;37.58;13.65;;;;;;;-4.91;75.55;101788.47;4473760;31;34353;-81
2022/01/13 05:09:54;;;;;;;42.15;15.55;;;;;;;-4.84;74.19;101793.06;4478589;31;34113;-81
2022/01/13 05:12:43;;;;;;;33.67;14.85;;;;;;;-5.91;77.24;101809.97;4481489;31;34301;-81
2022/01/13 05:15:29;;;;;;;37.53;14.50;;;;;;;-5.00;75.37;101801.78;4473620;31;35624;-81
2022/01/13 05:18:22;;;;;;;35.20;13.38;;;;;;;-5.50;76.15;101818.38;4478903;31;34580;-81
2022/01/13 05:21:19;;;;;;;32.88;14.82;;;;;;;-5.49;77.19;101814.75;4461293;31;35380;-81
2022/01/13 05:24:05;;;;;;;35.85;14.30;;;;;;;-5.39;76.54;101824.50;4476524;31;34668;-81
2022/01/13 05:26:52;;;;;;;46.92;16.45;;;;;;;-5.29;75.51;101831.47;4487102;31;34590;-81
2022/01/13 05:29:39;;;;;;;38.10;15.45;;;;;;;-5.21;75.45;101831.53;4479316;31;35173;-81
2022/01/13 05:32:25;;;;;;;44.00;16.95;;;;;;;-4.73;73.61;101821.34;4489087;31;34835;-81
2022/01/13 05:35:15;;;;;;;48.45;17.05;;;;;;;-4.70;73.13;101834.41;4489394;31;34572;-81
2022/01/13 05:38:03;;;;;;;56.40;19.62;;;;;;;-4.68;74.06;101842.28;4479381;31;35853;-81
2022/01/13 05:40:49;;;;;;;47.60;16.52;;;;;;;-4.56;73.76;101841.84;4478033;31;35441;-82
2022/01/13 05:43:36;;;;;;;43.47;17.15;;;;;;;-4.90;74.80;101848.97;4479097;31;33875;-82
2022/01/13 05:46:23;;;;;;;41.17;17.60;;;;;;;-4.56;74.87;101830.31;4472321;31;34691;-81
2022/01/13 05:49:09;;;;;;;44.05;17.33;;;;;;;-4.50;74.89;101826.19;4453431;31;36020;-81
2022/01/13 05:51:56;;;;;;;43.03;16.83;;;;;;;-4.47;74.96;101826.69;4475295;31;34148;-81
2022/01/13 05:54:42;;;;;;;44.33;17.27;;;;;;;-4.67;75.88;101827.91;4479087;31;34128;-81
2022/01/13 05:57:29;;;;;;;43.72;16.42;;;;;;;-4.50;76.41;101821.66;4474898;31;34626;-81
2022/01/13 06:00:17;;;;;;;45.83;17.58;;;;;;;-4.25;76.28;101816.44;4481398;31;35958;-81
2022/01/13 06:03:04;;;;;;;39.95;17.27;;;;;;;-4.40;77.23;101821.56;4477479;31;35071;-81
2022/01/13 06:05:51;;;;;;;46.22;17.80;;;;;;;-4.37;77.68;101824.75;4466522;31;33972;-82
2022/01/13 06:08:37;;;;;;;40.33;17.00;;;;;;;-4.23;77.81;101820.63;4480459;31;35626;-81
2022/01/13 06:11:26;;;;;;;50.97;18.55;;;;;;;-4.10;77.96;101822.84;4474921;31;34902;-82
2022/01/13 06:14:12;;;;;;;49.25;17.20;;;;;;;-4.19;78.48;101831.84;4479062;31;34598;-82
2022/01/13 06:16:58;;;;;;;46.25;16.27;;;;;;;-4.69;80.68;101820.06;4466632;31;34254;-81
2022/01/13 06:19:45;;;;;;;41.67;17.25;;;;;;;-4.18;79.22;101825.53;4479590;31;33547;-82
2022/01/13 06:22:32;;;;;;;38.80;16.58;;;;;;;-4.14;78.90;101819.66;4474066;31;35640;-81
2022/01/13 06:25:19;;;;;;;45.20;17.40;;;;;;;-4.31;80.12;101812.56;4483368;31;35206;-81
2022/01/13 06:28:06;;;;;;;51.75;19.67;;;;;;;-4.23;81.01;101804.56;4480488;31;34271;-82
2022/01/13 06:30:59;;;;;;;50.75;18.30;;;;;;;-4.35;82.06;101795.16;4469403;31;34631;-81
2022/01/13 06:33:45;;;;;;;42.33;18.08;;;;;;;-3.99;81.13;101800.31;4478896;31;36224;-82
2022/01/13 06:36:33;;;;;;;41.85;17.65;;;;;;;-4.26;82.67;101807.56;4458497;31;34098;-82
2022/01/13 06:39:19;;;;;;;42.35;15.63;;;;;;;-3.92;81.74;101812.91;4486697;31;33968;-82
2022/01/13 06:42:07;;;;;;;44.33;18.37;;;;;;;-3.76;81.47;101812.09;4479679;31;35124;-82
2022/01/13 06:44:53;;;;;;;41.85;17.65;;;;;;;-3.85;81.34;101813.06;4474754;31;34508;-81
2022/01/13 06:47:40;;;;;;;48.10;17.25;;;;;;;-3.83;82.31;101813.75;4476510;31;34587;-82
2022/01/13 06:50:27;;;;;;;45.97;17.77;;;;;;;-3.96;83.53;101816.03;4485547;31;34215;-82
2022/01/13 06:53:13;;;;;;;45.00;16.48;;;;;;;-3.67;83.11;101808.44;4472049;31;35338;-82
2022/01/13 06:56:00;;;;;;;45.50;18.12;;;;;;;-3.60;82.72;101815.81;4488552;31;35629;-82
2022/01/13 06:58:48;;;;;;;49.10;17.37;;;;;;;-3.68;83.77;101811.28;4489179;31;35411;-82
2022/01/13 07:01:34;;;;;;;46.37;17.90;;;;;;;-3.66;84.30;101820.00;4474257;31;34823;-81
2022/01/13 07:04:24;;;;;;;43.20;16.80;;;;;;;-4.13;85.69;101820.50;4490663;31;34600;-82
2022/01/13 07:07:11;;;;;;;51.35;18.33;;;;;;;-3.68;85.53;101809.44;4465926;31;35731;-82
2022/01/13 07:09:59;;;;;;;45.97;19.37;;;;;;;-3.84;84.73;101806.72;4478740;31;34603;-82
2022/01/13 07:12:46;;;;;;;46.55;18.52;;;;;;;-4.44;89.61;101818.38;4487604;31;34746;-82
2022/01/13 07:15:33;;;;;;;55.17;21.30;;;;;;;-4.54;90.34;101806.94;4490591;31;33711;-81
2022/01/13 07:18:19;;;;;;;43.10;18.30;;;;;;;-4.36;89.10;101805.00;4478913;31;34616;-82
2022/01/13 07:21:08;;;;;;;52.88;19.33;;;;;;;-4.37;89.42;101816.72;4495333;31;34332;-81
2022/01/13 07:23:55;;;;;;;49.47;19.10;;;;;;;-4.89;92.57;101830.13;4467651;31;34162;-82
2022/01/13 07:26:41;;;;;;;50.53;18.62;;;;;;;-4.95;94.67;101836.09;4475448;31;35622;-83
2022/01/13 07:29:28;;;;;;;55.92;20.12;;;;;;;-4.33;93.52;101825.25;4492256;31;34461;-83
2022/01/13 07:32:18;;;;;;;55.65;20.30;;;;;;;-4.37;94.30;101818.56;4477848;31;34051;-82
2022/01/13 07:35:04;;;;;;;49.13;18.40;;;;;;;-4.48;95.59;101826.87;4472702;31;33704;-83
2022/01/13 07:37:51;;;;;;;48.78;18.45;;;;;;;-4.07;94.26;101839.47;4472674;31;34141;-82
2022/01/13 07:40:37;;;;;;;52.60;19.95;;;;;;;-4.20;96.70;101840.91;4464334;31;34891;-83
2022/01/13 07:43:25;;;;;;;51.65;18.95;;;;;;;-4.41;97.41;101844.81;4484837;31;34608;-83
2022/01/13 07:46:11;;;;;;;47.75;18.40;;;;;;;-4.08;97.53;101840.44;4488774;31;35020;-83
2022/01/13 07:48:58;;;;;;;50.72;20.95;;;;;;;-3.96;97.62;101850.87;4478401;31;34955;-82
2022/01/13 07:51:44;;;;;;;54.88;21.95;;;;;;;-3.87;95.65;101853.44;4484874;31;34982;-82
2022/01/13 07:54:31;;;;;;;50.17;20.30;;;;;;;-4.16;98.08;101853.78;4481434;31;35070;-82
2022/01/13 07:57:19;;;;;;;57.97;20.55;;;;;;;-3.89;96.88;101851.91;4469323;31;34236;-81
2022/01/13 08:00:08;;;;;;;49.83;19.73;;;;;;;-3.95;98.50;101863.28;4481069;31;34235;-82
2022/01/13 08:02:57;;;;;;;48.35;21.73;;;;;;;-3.95;98.95;101855.25;4489572;31;35966;-82
2022/01/13 08:05:44;;;;;;;55.38;22.45;;;;;;;-3.79;98.48;101857.97;4477395;31;34429;-81
2022/01/13 08:08:32;;;;;;;45.00;20.67;;;;;;;-3.75;99.10;101856.66;4481109;31;34801;-81
2022/01/13 08:11:18;;;;;;;47.25;18.87;;;;;;;-3.52;97.09;101850.69;4485610;31;34251;-81
2022/01/13 08:14:05;;;;;;;45.15;19.12;;;;;;;-3.33;96.67;101849.53;4478344;31;34949;-82
2022/01/13 08:16:55;;;;;;;52.47;21.90;;;;;;;-3.30;96.74;101860.78;4467659;31;35400;-83
2022/01/13 08:19:45;;;;;;;49.63;19.23;;;;;;;-3.22;96.46;101857.25;4485619;31;34059;-83
2022/01/13 08:22:32;;;;;;;43.80;17.65;;;;;;;-2.79;95.42;101860.59;4488289;31;34380;-83
2022/01/13 08:25:19;;;;;;;50.25;21.45;;;;;;;-2.56;94.61;101852.69;4473420;31;34521;-83
2022/01/13 08:28:11;;;;;;;49.38;19.90;;;;;;;-2.63;95.02;101857.91;4478188;31;35377;-83
2022/01/13 08:30:59;;;;;;;45.20;18.40;;;;;;;-1.78;91.80;101864.56;4488290;31;34810;-83
2022/01/13 08:33:45;;;;;;;50.55;18.27;;;;;;;-1.57;90.09;101864.78;4486818;31;34353;-84
2022/01/13 08:36:32;;;;;;;43.70;17.33;;;;;;;-1.91;92.19;101860.56;4473674;31;34615;-83
2022/01/13 08:39:18;;;;;;;45.03;18.05;;;;;;;-1.78;91.12;101865.41;4490750;31;33609;-83
2022/01/13 08:42:05;;;;;;;49.28;19.15;;;;;;;-1.66;90.53;101861.28;4488769;31;34968;-82
2022/01/13 08:44:52;;;;;;;41.58;16.55;;;;;;;-1.87;92.81;101859.22;4481283;31;36881;-82
2022/01/13 08:47:39;;;;;;;46.25;19.87;;;;;;;-1.72;92.50;101850.41;4471066;31;34563;-83
2022/01/13 08:50:25;;;;;;;41.13;17.02;;;;;;;-1.56;91.38;101847.66;4477377;31;35410;-82
2022/01/13 08:53:14;;;;;;;45.20;18.67;;;;;;;-1.29;90.64;101856.22;4478524;31;33762;-83
2022/01/13 08:56:00;;;;;;;43.13;19.55;;;;;;;-0.89;89.27;101843.47;4476547;31;34327;-82
2022/01/13 08:58:47;;;;;;;60.53;24.20;;;;;;;-0.95;89.36;101847.72;4485291;31;34656;-82
2022/01/13 09:01:33;;;;;;;82.82;34.50;;;;;;;-1.06;90.62;101846.28;4476087;31;35081;-81
2022/01/13 09:04:20;;;;;;;40.47;18.33;;;;;;;-0.56;88.73;101838.62;4468444;31;34132;-83
2022/01/13 09:07:07;;;;;;;41.67;18.65;;;;;;;-0.80;88.61;101840.50;4486053;31;34639;-84
2022/01/13 09:09:58;;;;;;;38.80;20.87;;;;;;;-0.67;88.77;101845.28;4474983;31;36015;-83
2022/01/13 09:12:44;;;;;;;44.05;19.45;;;;;;;-0.60;88.67;101835.44;4477682;31;35359;-81
2022/01/13 09:15:35;;;;;;;38.45;16.98;;;;;;;-0.93;90.25;101851.91;4482678;31;33940;-81
2022/01/13 09:21:43;;;;;;;41.63;15.80;;;;;;;-0.85;90.26;101847.44;4452454;31;33616;-79
2022/01/13 09:24:30;;;;;;;43.97;22.15;;;;;;;-0.44;88.93;101836.31;4481178;31;34100;-80
2022/01/13 09:27:16;;;;;;;38.72;19.08;;;;;;;-0.64;89.70;101836.84;4488600;31;35161;-82
2022/01/13 09:30:03;;;;;;;36.92;18.27;;;;;;;-0.70;89.98;101845.66;4467374;31;37327;-83
2022/01/13 09:32:50;;;;;;;39.33;18.37;;;;;;;-0.68;90.16;101867.84;4468067;31;34626;-82
2022/01/13 09:35:36;;;;;;;38.58;14.13;;;;;;;-0.59;89.65;101853.28;4477843;31;34543;-82
2022/01/13 09:38:22;;;;;;;35.38;14.90;;;;;;;-0.19;87.83;101853.06;4475901;31;34783;-80
2022/01/13 09:41:09;;;;;;;35.38;15.20;;;;;;;-0.22;88.55;101848.88;4485727;31;34271;-82
2022/01/13 09:43:55;;;;;;;34.78;15.05;;;;;;;-0.18;88.46;101858.25;4476474;31;34926;-81
2022/01/13 09:46:42;;;;;;;32.60;15.07;;;;;;;0.04;87.70;101853.78;4477965;31;34168;-79
2022/01/13 09:49:29;;;;;;;35.00;16.83;;;;;;;-0.15;88.06;101855.16;4474723;31;34988;-78
2022/01/13 09:52:15;;;;;;;34.55;18.02;;;;;;;-0.07;87.29;101847.00;4478685;31;34621;-78
2022/01/13 09:55:01;;;;;;;32.75;13.80;;;;;;;0.01;87.47;101845.25;4467190;31;34632;-78
2022/01/13 09:57:52;;;;;;;34.53;17.25;;;;;;;0.28;86.60;101833.75;4484732;31;34545;-79
2022/01/13 10:00:39;;;;;;;40.08;15.45;;;;;;;-0.02;87.73;101819.50;4492873;31;34089;-79
2022/01/13 10:03:26;;;;;;;32.67;14.75;;;;;;;0.05;87.51;101822.25;4472078;31;34193;-79
2022/01/13 10:06:18;;;;;;;29.67;13.52;;;;;;;0.18;87.06;101817.88;4472699;31;34840;-79
2022/01/13 10:09:05;;;;;;;29.77;12.27;;;;;;;0.46;85.41;101819.87;4484527;31;34590;-76
2022/01/13 10:11:56;;;;;;;29.30;13.27;;;;;;;0.67;84.49;101813.63;4477776;31;34290;-77
2022/01/13 10:17:29;;;;;;;26.37;11.38;;;;;;;0.93;83.62;101820.31;4473804;31;34990;-77
2022/01/13 10:20:19;;;;;;;28.98;13.98;;;;;;;0.85;83.90;101814.03;4479765;31;33457;-77
2022/01/13 10:23:10;;;;;;;33.78;14.70;;;;;;;0.62;85.46;101807.97;4485451;31;35172;-77
2022/01/13 10:26:07;;;;;;;34.15;16.58;;;;;;;0.81;84.99;101798.41;4474081;31;34563;-79
2022/01/13 10:28:53;;;;;;;37.47;18.42;;;;;;;0.87;82.85;101805.72;4477356;31;36068;-77
2022/01/13 10:31:49;;;;;;;33.63;16.23;;;;;;;1.04;82.62;101812.53;4487156;31;34186;-77
2022/01/13 10:34:38;;;;;;;38.85;19.90;;;;;;;0.93;83.28;101814.91;4485098;31;33802;-78
2022/01/13 10:37:33;;;;;;;31.77;14.45;;;;;;;0.64;83.66;101827.50;4462117;31;35559;-76
2022/01/13 10:40:27;;;;;;;49.72;25.30;;;;;;;0.71;84.36;101800.59;4477433;31;34560;-76
2022/01/13 10:43:22;;;;;;;30.95;13.25;;;;;;;0.92;83.39;101799.75;4474921;31;35396;-76
2022/01/13 10:46:08;;;;;;;31.77;14.25;;;;;;;1.04;82.54;101790.09;4481478;31;33640;-76
2022/01/13 10:49:07;;;;;;;32.75;15.63;;;;;;;0.93;83.00;101785.22;4485092;31;34667;-77
2022/01/13 10:51:54;;;;;;;39.13;19.80;;;;;;;0.83;82.76;101782.87;4476342;31;34602;-77
2022/01/13 10:54:40;;;;;;;29.50;15.27;;;;;;;0.64;83.86;101774.38;4476446;31;34886;-77
2022/01/13 10:57:27;;;;;;;34.75;16.37;;;;;;;0.62;84.44;101775.59;4494030;31;34204;-78
2022/01/13 11:00:17;;;;;;;31.67;18.77;;;;;;;0.55;84.36;101772.84;4479424;31;34608;-78
2022/01/13 11:03:11;;;;;;;37.58;18.37;;;;;;;0.52;83.95;101770.53;4489121;31;34975;-78
2022/01/13 11:06:04;;;;;;;38.40;18.80;;;;;;;0.64;84.50;101774.38;4463520;31;35039;-77
2022/01/13 11:08:50;;;;;;;28.48;13.30;;;;;;;0.65;84.51;101767.12;4478635;31;35115;-77
2022/01/13 11:11:45;;;;;;;28.83;14.50;;;;;;;0.61;84.34;101773.94;4475711;31;34571;-77
2022/01/13 11:14:31;;;;;;;31.75;13.18;;;;;;;0.50;84.11;101769.06;4469003;31;35813;-77
2022/01/13 11:17:20;;;;;;;30.35;14.30;;;;;;;0.71;83.79;101779.84;4485010;31;33168;-76
2022/01/13 11:20:08;;;;;;;34.33;14.70;;;;;;;0.98;82.60;101772.00;4473920;31;34841;-76
2022/01/13 11:22:57;;;;;;;31.02;12.70;;;;;;;1.19;81.84;101769.22;4478135;31;34584;-76
2022/01/13 11:25:45;;;;;;;34.45;15.00;;;;;;;1.06;82.31;101758.34;4474225;31;35522;-75
2022/01/13 11:28:35;;;;;;;31.65;14.90;;;;;;;1.03;82.07;101766.84;4467374;31;34133;-78
2022/01/13 11:31:21;;;;;;;37.03;17.40;;;;;;;0.95;82.29;101753.50;4476451;31;33542;-74
2022/01/13 11:34:08;;;;;;;37.08;16.90;;;;;;;0.40;84.64;101754.03;4473172;31;34625;-78
2022/01/13 11:36:54;;;;;;;31.98;14.90;;;;;;;0.19;86.03;101757.53;4487031;31;35044;-74
2022/01/13 11:39:43;;;;;;;29.98;13.93;;;;;;;0.30;86.29;101737.31;4486214;31;34082;-75
2022/01/13 11:42:29;;;;;;;31.25;14.60;;;;;;;0.33;86.72;101744.19;4476784;31;34233;-75
2022/01/13 11:45:20;;;;;;;33.00;12.88;;;;;;;0.45;85.99;101750.75;4474957;31;34455;-74
2022/01/13 11:48:12;;;;;;;27.13;12.18;;;;;;;0.59;84.64;101751.72;4484264;31;34970;-75
2022/01/13 11:51:16;;;;;;;26.65;11.48;;;;;;;0.67;84.97;101743.50;4488977;31;34220;-75
2022/01/13 11:54:06;;;;;;;23.38;10.23;;;;;;;0.69;85.39;101737.91;4475355;31;34140;-74
2022/01/13 11:57:21;;;;;;;26.60;13.77;;;;;;;0.88;83.97;101729.97;4480543;31;34239;-76
2022/01/13 12:00:07;;;;;;;27.50;13.65;;;;;;;0.47;85.04;101729.00;4475440;31;34966;-81
2022/01/13 12:02:57;;;;;;;25.55;11.95;;;;;;;0.72;84.81;101730.25;4478819;31;35390;-78
2022/01/13 12:05:43;;;;;;;27.75;12.27;;;;;;;1.13;83.22;101722.25;4485028;31;35131;-77
2022/01/13 12:08:51;;;;;;;30.73;15.75;;;;;;;1.02;83.75;101717.38;4461957;31;35062;-82
2022/01/13 12:11:53;;;;;;;29.87;15.35;;;;;;;0.80;83.82;101740.91;4476071;31;34646;-80
2022/01/13 12:14:41;;;;;;;32.80;14.65;;;;;;;0.63;84.63;101732.25;4478976;31;34710;-80
2022/01/13 12:17:44;;;;;;;26.33;13.50;;;;;;;0.86;84.13;101734.72;4477420;31;34144;-83
2022/01/13 12:20:39;;;;;;;;;;;;;;;0.78;84.11;101715.97;4474744;31;34566;-80
2022/01/13 12:23:45;;;;;;;31.30;13.27;;;;;;;1.03;83.51;101735.28;4463381;31;34785;-80
2022/01/13 12:26:30;;;;;;;31.30;13.10;;;;;;;0.89;83.36;101728.94;4472585;31;35008;-78
2022/01/13 12:29:21;;;;;;;30.55;14.32;;;;;;;0.71;84.88;101739.34;4490225;31;34181;-78
2022/01/13 12:32:10;;;;;;;28.87;12.57;;;;;;;0.87;83.79;101727.47;4478000;31;33595;-80
2022/01/13 12:34:57;;;;;;;22.42;11.52;;;;;;;0.66;84.75;101737.25;4486286;31;34979;-79
2022/01/13 12:37:58;;;;;;;28.35;13.20;;;;;;;0.45;85.21;101726.47;4477832;31;34105;-80
2022/01/13 12:40:50;;;;;;;22.95;10.10;;;;;;;0.64;84.43;101715.03;4464423;31;35024;-80
2022/01/13 12:46:34;;;;;;;29.70;13.35;;;;;;;0.64;84.38;101692.62;4492641;31;36057;-80
2022/01/13 12:49:20;;;;;;;38.70;17.48;;;;;;;0.39;85.77;101698.41;4487821;31;35452;-80
2022/01/13 12:52:07;;;;;;;26.95;12.55;;;;;;;0.45;85.87;101689.53;4479529;31;35062;-80
2022/01/13 12:54:54;;;;;;;30.00;16.42;;;;;;;0.62;84.71;101689.28;4480638;31;34107;-80
2022/01/13 12:57:46;;;;;;;27.40;13.20;;;;;;;0.54;84.96;101697.50;4488556;31;34618;-82
2022/01/13 13:00:33;;;;;;;27.42;13.80;;;;;;;0.73;83.84;101712.19;4484541;31;34610;-80
2022/01/13 13:03:19;;;;;;;29.90;13.65;;;;;;;0.59;84.93;101724.72;4478420;31;34162;-80
2022/01/13 13:06:14;;;;;;;29.05;11.73;;;;;;;0.84;84.05;101731.38;4479906;31;35608;-78